Time;durP1;ratioP1;P1;durP2;ratioP2;P2;SDS_P1;SDS_P2;PMS_P1;PMS_P2;Temp;Humidity;BMP_temperature;BMP_pressure;BME280_temperature;BME280_humidity;BME280_pressure;Samples;Min_cycle;Max_cycle;Signal;HPM_P1;HPM_P2
2021/06/24 05:00:48;;;;;;;23.23;11.57;;;;;;;29.66;58.07;95079.28;5998021;23;20130;31
2021/06/24 05:03:14;;;;;;;25.45;11.05;;;;;;;30.05;57.50;95073.69;4851658;29;20053;-78
2021/06/24 05:05:41;;;;;;;22.67;9.68;;;;;;;29.29;59.04;95079.97;4846543;29;20412;-79
2021/06/24 05:08:10;;;;;;;27.77;11.43;;;;;;;30.24;56.74;95071.78;4874768;29;20510;-78
2021/06/24 05:10:36;;;;;;;32.78;10.27;;;;;;;30.37;55.88;95076.41;4890758;29;20463;-77
2021/06/24 05:13:01;;;;;;;27.33;9.68;;;;;;;29.41;58.43;95087.59;4858180;29;20029;-79
2021/06/24 05:15:26;;;;;;;26.00;9.73;;;;;;;30.33;57.08;95067.38;4844807;29;20431;-78
2021/06/24 05:17:52;;;;;;;21.60;9.18;;;;;;;30.93;55.17;95078.94;4874679;29;20017;-79
2021/06/24 05:20:18;;;;;;;25.23;9.60;;;;;;;31.06;54.79;95074.72;4874280;29;20045;-79
2021/06/24 05:22:43;;;;;;;22.60;9.32;;;;;;;29.49;59.63;95084.28;4874225;29;20477;-79
2021/06/24 05:25:10;;;;;;;23.05;8.80;;;;;;;29.24;61.91;95080.00;4858460;29;20479;-80
2021/06/24 05:27:35;;;;;;;18.23;8.93;;;;;;;29.50;61.15;95091.22;4890503;29;20124;-80
2021/06/24 05:30:01;;;;;;;21.75;8.80;;;;;;;28.95;62.82;95097.94;4873926;29;20054;-80
2021/06/24 05:32:26;;;;;;;26.08;9.50;;;;;;;28.94;62.81;95093.66;4873921;29;20502;-78
2021/06/24 05:34:52;;;;;;;25.58;9.80;;;;;;;28.61;63.70;95093.38;4874172;29;20097;-78
2021/06/24 05:37:17;;;;;;;23.35;8.90;;;;;;;29.86;59.94;95091.59;4876101;29;20101;-79
2021/06/24 05:39:43;;;;;;;27.95;9.55;;;;;;;30.16;58.44;95088.47;4889943;29;20444;-78
2021/06/24 05:42:08;;;;;;;28.80;10.00;;;;;;;30.37;58.09;95083.63;4875489;29;20483;-79
2021/06/24 05:44:34;;;;;;;21.60;8.43;;;;;;;31.92;54.00;95086.44;4875164;29;20435;-78
2021/06/24 05:47:00;;;;;;;24.13;9.00;;;;;;;30.46;56.37;95092.59;4888957;29;20390;-80
2021/06/24 05:49:26;;;;;;;21.83;8.80;;;;;;;30.95;55.88;95098.22;4878143;29;20084;-79
2021/06/24 05:51:51;;;;;;;25.92;8.60;;;;;;;31.60;54.09;95098.06;4875861;29;20028;-79
2021/06/24 05:54:17;;;;;;;25.80;8.77;;;;;;;31.45;54.36;95095.69;4861872;29;20040;-78
2021/06/24 05:56:42;;;;;;;26.88;8.93;;;;;;;31.58;54.70;95098.38;4838124;29;20530;-78
2021/06/24 05:59:08;;;;;;;26.83;8.90;;;;;;;32.72;52.31;95089.19;4859093;29;20028;-78
2021/06/24 06:01:34;;;;;;;27.88;9.82;;;;;;;33.67;49.57;95080.47;4874221;29;20049;-80
2021/06/24 06:03:59;;;;;;;28.80;9.00;;;;;;;35.70;44.48;95080.09;4834978;29;20484;-79
2021/06/24 06:06:25;;;;;;;19.63;9.77;;;;;;;36.20;43.04;95089.00;4793534;29;20073;-78
2021/06/24 06:08:50;;;;;;;28.08;10.13;;;;;;;36.72;42.42;95085.88;4803799;29;20041;-78
2021/06/24 06:11:18;;;;;;;26.02;11.30;;;;;;;37.08;39.83;95085.22;4859189;29;20029;-76
2021/06/24 06:13:43;;;;;;;27.50;11.20;;;;;;;36.42;42.24;95083.25;4874484;29;20069;-77
2021/06/24 06:16:09;;;;;;;20.30;9.55;;;;;;;37.43;40.31;95080.97;4893439;29;20017;-77
2021/06/24 06:18:34;;;;;;;23.67;9.77;;;;;;;38.43;38.90;95091.06;4821642;29;20064;-77
2021/06/24 06:21:00;;;;;;;24.42;10.35;;;;;;;37.84;39.28;95088.88;4830743;29;20033;-77
2021/06/24 06:23:27;;;;;;;31.90;9.25;;;;;;;37.62;39.43;95092.06;4870028;29;20117;-78
2021/06/24 06:25:53;;;;;;;22.45;9.00;;;;;;;39.09;36.78;95090.56;4854023;29;20041;-77
2021/06/24 06:28:19;;;;;;;26.05;9.13;;;;;;;38.29;38.60;95096.84;4869379;29;20072;-77
2021/06/24 06:30:47;;;;;;;24.73;9.77;;;;;;;38.95;38.11;95091.75;4866859;29;20072;-76
2021/06/24 06:33:13;;;;;;;27.30;8.90;;;;;;;38.29;38.13;95102.25;4858671;29;20043;-77
2021/06/24 06:35:38;;;;;;;27.15;8.88;;;;;;;37.08;40.01;95102.22;4860466;29;20021;-76
2021/06/24 06:38:04;;;;;;;22.05;8.60;;;;;;;38.33;39.09;95094.22;4855759;29;20051;-76
2021/06/24 06:40:29;;;;;;;24.08;9.15;;;;;;;37.87;39.50;95096.31;4850236;29;20432;-77
2021/06/24 06:42:55;;;;;;;32.60;9.32;;;;;;;36.34;41.60;95094.91;4847957;29;20485;-77
2021/06/24 06:45:22;;;;;;;25.70;9.88;;;;;;;32.95;47.65;95088.03;4839081;29;20456;-77
2021/06/24 06:47:48;;;;;;;23.50;8.15;;;;;;;32.86;49.39;95088.00;5253706;23;20521;-76
2021/06/24 06:50:14;;;;;;;23.85;8.23;;;;;;;32.88;51.16;95085.78;4883914;29;20139;-76
2021/06/24 06:52:39;;;;;;;24.02;9.40;;;;;;;31.40;50.60;95088.56;4893719;29;20040;-77
2021/06/24 06:55:05;;;;;;;30.90;8.45;;;;;;;33.12;48.71;95090.84;4864390;29;20043;-76
2021/06/24 06:57:30;;;;;;;30.88;9.15;;;;;;;34.83;45.86;95095.75;4863603;29;20028;-73
2021/06/24 06:59:56;;;;;;;24.58;9.00;;;;;;;38.38;38.14;95092.09;4871811;29;20028;-73
2021/06/24 07:02:21;;;;;;;34.47;9.60;;;;;;;37.38;38.98;95098.19;4895306;29;20040;-73
2021/06/24 07:04:47;;;;;;;28.58;9.10;;;;;;;37.89;38.52;95102.16;4884168;29;20029;-73
2021/06/24 07:07:12;;;;;;;38.50;10.35;;;;;;;38.39;37.16;95101.00;4892035;29;20320;-74
2021/06/24 07:09:39;;;;;;;26.58;8.90;;;;;;;38.36;37.76;95101.69;4882690;29;20067;-74
2021/06/24 07:12:04;;;;;;;32.22;9.63;;;;;;;35.16;42.79;95098.69;4873999;29;20024;-74
2021/06/24 07:14:30;;;;;;;23.35;9.68;;;;;;;32.63;49.65;95104.41;4895147;29;20063;-74
2021/06/24 07:16:55;;;;;;;29.48;9.55;;;;;;;31.86;53.02;95102.63;4874378;29;20017;-73
2021/06/24 07:19:21;;;;;;;32.13;10.50;;;;;;;31.82;52.55;95093.59;4911801;29;20111;-73
2021/06/24 07:21:46;;;;;;;27.33;10.85;;;;;;;30.78;54.59;95093.41;4868410;29;20024;-72
2021/06/24 07:24:12;;;;;;;29.45;10.27;;;;;;;31.74;52.25;95088.16;5236243;23;20052;-74
2021/06/24 07:26:40;;;;;;;37.30;9.90;;;;;;;31.10;52.52;95086.44;4927534;29;20055;-74
2021/06/24 07:29:06;;;;;;;31.58;9.40;;;;;;;29.37;58.43;95084.69;4926797;29;20059;-74
2021/06/24 07:31:31;;;;;;;29.95;9.40;;;;;;;31.38;54.86;95079.19;4922591;29;20421;-74
2021/06/24 07:33:57;;;;;;;24.63;8.77;;;;;;;31.70;54.34;95084.47;4935301;29;20026;-74
2021/06/24 07:36:22;;;;;;;23.83;8.98;;;;;;;32.24;51.24;95076.31;4947655;29;20098;-75
2021/06/24 07:38:48;;;;;;;30.77;8.90;;;;;;;32.40;49.59;95082.13;4947496;29;20027;-74
2021/06/24 07:41:13;;;;;;;27.15;9.52;;;;;;;32.34;52.27;95078.78;4921050;29;20031;-75
2021/06/24 07:43:39;;;;;;;19.23;9.40;;;;;;;31.75;53.19;95090.53;4907090;29;20095;-75
2021/06/24 07:46:04;;;;;;;49.53;33.72;;;;;;;32.38;50.68;95087.00;4948810;29;20026;-75
2021/06/24 07:48:30;;;;;;;38.38;13.43;;;;;;;32.58;53.63;95091.94;4947581;29;20023;-76
2021/06/24 07:50:55;;;;;;;34.70;16.33;;;;;;;32.27;49.89;95085.69;4948374;29;20031;-74
2021/06/24 07:53:21;;;;;;;53.97;14.32;;;;;;;31.04;57.48;95087.63;4929786;29;20116;-78
2021/06/24 07:55:46;;;;;;;38.40;10.38;;;;;;;30.98;54.21;95083.47;4922767;29;20027;-82
2021/06/24 07:58:12;;;;;;;30.35;14.50;;;;;;;32.23;50.48;95084.69;4930256;29;20575;-83
2021/06/24 08:00:37;;;;;;;26.55;10.15;;;;;;;32.01;51.43;95084.63;4929916;29;20027;-84
2021/06/24 08:03:03;;;;;;;34.45;10.20;;;;;;;32.11;52.33;95081.75;4930466;29;20034;-81
2021/06/24 08:05:29;;;;;;;37.70;13.90;;;;;;;32.41;50.94;95081.03;4904970;29;20405;-81
2021/06/24 08:07:54;;;;;;;37.65;17.83;;;;;;;31.19;54.99;95074.75;4886650;29;20035;-83
2021/06/24 08:10:20;;;;;;;27.65;8.77;;;;;;;31.46;54.61;95076.66;4930152;29;20031;-82
2021/06/24 08:12:46;;;;;;;26.67;9.13;;;;;;;32.59;53.60;95073.94;4947981;29;20027;-79
2021/06/24 08:15:12;;;;;;;24.85;8.85;;;;;;;32.66;52.13;95072.38;4930337;29;20027;-81
2021/06/24 08:17:38;;;;;;;34.92;17.30;;;;;;;32.11;55.00;95073.72;4930937;29;20555;-80
2021/06/24 08:20:04;;;;;;;38.35;8.77;;;;;;;32.06;52.83;95077.28;4947723;29;20027;-82
2021/06/24 08:22:31;;;;;;;24.05;8.70;;;;;;;29.96;52.33;95076.19;4929309;29;20032;-78
2021/06/24 08:24:57;;;;;;;25.77;7.40;;;;;;;31.67;53.85;95079.72;4895488;28;20664;-83
2021/06/24 08:27:22;;;;;;;27.08;9.05;;;;;;;30.94;52.89;95077.06;4912977;29;20063;-81
2021/06/24 08:29:47;;;;;;;33.35;12.60;;;;;;;31.96;52.90;95074.00;4929177;29;20098;-81
2021/06/24 08:32:13;;;;;;;22.05;8.90;;;;;;;31.88;51.24;95072.03;4927359;29;20409;-80
2021/06/24 08:34:39;;;;;;;37.50;8.35;;;;;;;30.56;52.04;95069.16;4929075;29;20024;-82
2021/06/24 08:37:04;;;;;;;24.90;7.75;;;;;;;30.60;52.78;95069.38;4921842;29;20027;-80
2021/06/24 08:39:29;;;;;;;29.15;7.53;;;;;;;31.29;51.25;95071.88;4891717;29;20028;-82
2021/06/24 08:41:55;;;;;;;37.97;11.50;;;;;;;32.53;50.38;95067.06;4885615;29;20536;-86
2021/06/24 08:44:21;;;;;;;23.95;7.43;;;;;;;31.63;48.68;95076.84;4882193;29;20035;-76
2021/06/24 08:46:51;;;;;;;27.08;6.55;;;;;;;32.02;52.07;95070.91;4883875;29;20185;-80
2021/06/24 08:49:16;;;;;;;23.92;5.93;;;;;;;32.61;51.25;95074.41;4908173;29;20024;-84
2021/06/24 08:51:42;;;;;;;34.78;11.82;;;;;;;32.63;50.93;95082.94;4896304;29;20136;-81
2021/06/24 08:54:07;;;;;;;42.50;16.17;;;;;;;32.58;49.27;95065.09;4908111;29;20032;-83
2021/06/24 08:56:33;;;;;;;25.27;10.98;;;;;;;32.50;52.76;95071.16;4916532;29;20031;-82
2021/06/24 08:58:58;;;;;;;30.20;10.77;;;;;;;33.05;47.74;95077.03;4881847;29;20118;-82
2021/06/24 09:01:58;;;;;;;21.92;6.47;;;;;;;32.30;46.63;95080.47;4910746;29;20038;-84
2021/06/24 09:04:30;;;;;;;19.25;8.10;;;;;;;32.61;44.77;95083.25;4857655;28;20874;-81
2021/06/24 09:07:10;;;;;;;19.67;6.80;;;;;;;32.74;49.55;95073.56;4814843;29;20632;-78
2021/06/24 09:09:36;;;;;;;36.20;17.60;;;;;;;32.77;46.92;95072.94;4845525;29;20055;-84
2021/06/24 09:12:03;;;;;;;32.15;10.82;;;;;;;32.34;50.80;95086.03;4898918;29;20396;-83
2021/06/24 09:14:45;;;;;;;17.60;5.50;;;;;;;32.46;45.77;95072.88;4897250;29;20044;-81
2021/06/24 09:17:12;;;;;;;24.35;7.55;;;;;;;32.84;44.53;95078.66;4891820;29;20031;-80
2021/06/24 09:19:42;;;;;;;27.10;16.40;;;;;;;33.23;46.60;95086.00;4875909;29;20059;-83
2021/06/24 09:22:08;;;;;;;57.97;43.85;;;;;;;32.83;49.34;95074.38;4796171;29;20048;-79
2021/06/24 09:24:38;;;;;;;29.20;11.52;;;;;;;32.80;47.87;95077.69;4911002;29;20036;-81
2021/06/24 09:27:28;;;;;;;13.60;4.47;;;;;;;32.08;41.03;95071.59;4908117;29;20103;-81
2021/06/24 09:30:10;;;;;;;17.45;4.82;;;;;;;32.49;43.86;95066.91;4890598;29;20031;-83
2021/06/24 09:32:40;;;;;;;25.92;5.40;;;;;;;32.45;44.16;95073.16;4911570;29;20035;-86
2021/06/24 09:35:07;;;;;;;31.65;15.05;;;;;;;32.82;43.94;95073.59;4907820;29;20032;-83
2021/06/24 09:38:03;;;;;;;13.68;4.30;;;;;;;32.91;42.81;95064.81;4908737;29;20024;-78
2021/06/24 09:40:55;;;;;;;23.58;15.85;;;;;;;33.17;42.39;95065.75;4910718;29;20445;-82
2021/06/24 09:43:31;;;;;;;14.98;5.00;;;;;;;32.44;41.19;95064.31;4908873;29;20048;-85
2021/06/24 09:46:17;;;;;;;15.43;4.95;;;;;;;32.77;45.35;95062.19;4893130;29;20083;-87
2021/06/24 09:49:01;;;;;;;22.67;6.07;;;;;;;32.86;43.66;95060.34;4912173;29;20080;-85
2021/06/24 09:51:31;;;;;;;38.33;20.08;;;;;;;32.45;41.67;95049.81;4897108;29;20024;-83
2021/06/24 09:54:00;;;;;;;23.33;5.18;;;;;;;31.48;41.48;95058.38;4894603;29;20103;-82
2021/06/24 09:56:48;;;;;;;16.30;4.75;;;;;;;32.14;43.66;95054.34;4912959;29;20695;-82
2021/06/24 09:59:15;;;;;;;17.63;8.50;;;;;;;32.53;41.72;95041.00;4889612;29;20418;-87
2021/06/24 10:01:47;;;;;;;16.95;7.38;;;;;;;32.83;44.95;95044.84;4890152;29;20163;-84
2021/06/24 10:04:22;;;;;;;18.05;4.88;;;;;;;32.38;43.42;95030.66;4910690;29;20524;-81
2021/06/24 10:06:52;;;;;;;17.98;4.97;;;;;;;33.12;47.24;95031.75;4911312;29;20086;-86
2021/06/24 10:09:18;;;;;;;17.23;5.35;;;;;;;33.17;44.33;95034.28;4912129;29;20040;-78
2021/06/24 10:11:44;;;;;;;16.65;4.82;;;;;;;32.64;43.51;95028.97;4847233;29;20115;-81
2021/06/24 10:14:09;;;;;;;13.95;4.82;;;;;;;32.96;42.91;95037.81;4896370;29;20028;-81
2021/06/24 10:16:35;;;;;;;20.27;5.82;;;;;;;32.15;42.15;95019.16;4894504;29;20133;-82
2021/06/24 10:19:00;;;;;;;23.73;4.93;;;;;;;31.74;43.68;95024.63;4878632;29;20414;-79
2021/06/24 10:21:27;;;;;;;17.90;4.85;;;;;;;32.04;43.26;95027.75;4894152;29;20032;-80
2021/06/24 10:23:57;;;;;;;17.20;5.13;;;;;;;31.77;42.90;95024.03;4909738;29;20463;-81
2021/06/24 10:26:23;;;;;;;19.23;5.30;;;;;;;31.95;43.43;95029.53;4896515;29;20032;-89
2021/06/24 10:28:48;;;;;;;14.65;4.28;;;;;;;32.06;44.91;95036.25;4894584;29;20028;-84
2021/06/24 10:31:36;;;;;;;14.70;4.45;;;;;;;32.26;43.84;95030.44;4896162;29;20473;-82
2021/06/24 10:34:03;;;;;;;17.15;6.28;;;;;;;33.05;46.28;95030.56;4910875;29;20562;-77
2021/06/24 10:36:30;;;;;;;17.92;5.10;;;;;;;32.97;44.89;95026.78;4880073;29;20020;-80
2021/06/24 10:38:57;;;;;;;14.07;4.72;;;;;;;33.29;44.56;95017.59;4912818;29;20032;-81
2021/06/24 10:41:23;;;;;;;25.67;6.15;;;;;;;33.36;43.13;95017.94;4909549;29;20028;-85
2021/06/24 10:43:49;;;;;;;16.00;8.10;;;;;;;33.16;47.58;95010.44;4931888;29;20086;-83
2021/06/24 10:46:20;;;;;;;23.98;10.07;;;;;;;33.16;48.44;95010.44;4881815;29;20046;-80
2021/06/24 10:48:46;;;;;;;19.75;6.40;;;;;;;32.41;43.20;94995.19;4931401;29;20035;-83
2021/06/24 10:51:12;;;;;;;23.05;7.15;;;;;;;33.19;46.83;95002.53;4913555;29;20453;-81
2021/06/24 10:53:40;;;;;;;17.80;7.45;;;;;;;32.84;43.10;94998.13;4913610;29;20035;-81
2021/06/24 10:56:34;;;;;;;22.60;6.00;;;;;;;32.28;44.23;94998.72;4914842;29;20408;-77
2021/06/24 10:59:01;;;;;;;14.52;4.97;;;;;;;33.26;45.52;95000.22;4910569;29;20106;-79
2021/06/24 11:01:46;;;;;;;21.70;7.03;;;;;;;33.62;44.67;95001.88;4896317;29;20433;-80
2021/06/24 11:04:39;;;;;;;20.92;6.43;;;;;;;33.45;45.23;95008.00;4910183;29;20132;-78
2021/06/24 11:07:17;;;;;;;17.23;5.53;;;;;;;33.54;46.91;95014.16;4908695;29;20035;-81
2021/06/24 11:10:22;;;;;;;15.73;8.00;;;;;;;33.13;45.38;95011.06;4879209;29;20421;-83
2021/06/24 11:12:55;;;;;;;36.35;15.55;;;;;;;33.11;47.94;95007.88;4894366;29;20034;-80
2021/06/24 11:15:42;;;;;;;31.92;15.35;;;;;;;33.01;47.92;95005.47;4909847;29;20035;-80
2021/06/24 11:18:08;;;;;;;27.38;8.90;;;;;;;32.91;44.02;94986.94;4912080;29;20665;-84
2021/06/24 11:20:42;;;;;;;22.33;6.13;;;;;;;32.44;42.37;94989.19;4893484;29;20028;-82
2021/06/24 11:23:28;;;;;;;17.35;5.85;;;;;;;32.79;42.59;94996.34;4895285;29;20032;-83
2021/06/24 11:26:29;;;;;;;15.57;5.28;;;;;;;33.32;44.09;95001.63;4891491;29;20556;-82
2021/06/24 11:29:11;;;;;;;17.60;5.85;;;;;;;32.96;42.39;95002.91;4836902;29;20120;-83
2021/06/24 11:31:43;;;;;;;19.05;5.38;;;;;;;33.52;42.93;94989.50;4887653;29;20044;-80
2021/06/24 11:36:54;;;;;;;18.33;4.30;;;;;;;33.07;44.12;94996.97;4864470;29;20479;-81
2021/06/24 11:39:27;;;;;;;21.10;5.05;;;;;;;33.53;42.64;94995.66;4886201;29;20044;-81
2021/06/24 11:41:54;;;;;;;18.15;4.57;;;;;;;33.54;44.01;94989.97;4892471;29;20406;-84
2021/06/24 11:44:27;;;;;;;20.17;5.50;;;;;;;33.29;42.05;94999.56;4894716;29;20036;-83
2021/06/24 11:47:05;;;;;;;13.68;4.22;;;;;;;33.31;44.43;94985.81;4893491;29;20036;-84
2021/06/24 12:04:06;;;;;;;24.10;5.45;;;;;;;33.48;44.49;94977.78;4876969;29;20042;-80
2021/06/24 12:06:56;;;;;;;15.13;5.72;;;;;;;33.27;42.49;94963.34;4875654;29;20069;-82
2021/06/24 12:09:23;;;;;;;19.38;5.38;;;;;;;33.16;43.10;94956.72;4861459;29;20025;-79
2021/06/24 12:11:58;;;;;;;16.15;5.47;;;;;;;33.12;45.15;94950.38;4874525;29;20055;-81
2021/06/24 12:14:31;;;;;;;31.40;6.05;;;;;;;32.99;43.92;94965.47;4860367;29;20036;-77
2021/06/24 12:17:14;;;;;;;23.15;4.93;;;;;;;32.96;42.83;94971.47;4879213;29;20111;-81
2021/06/24 12:19:44;;;;;;;16.75;5.47;;;;;;;32.73;42.33;94968.06;4909575;29;20490;-81
2021/06/24 12:22:10;;;;;;;18.45;5.05;;;;;;;33.38;45.20;94960.06;4898135;29;20064;-76
2021/06/24 12:24:35;;;;;;;19.08;5.35;;;;;;;33.45;42.94;94953.44;4909975;29;20152;-81
2021/06/24 12:27:26;;;;;;;13.15;5.35;;;;;;;33.56;46.10;94960.06;4894304;29;20028;-82
2021/06/24 12:29:54;;;;;;;19.92;5.20;;;;;;;33.71;44.62;94959.66;4910459;29;20538;-79
2021/06/24 12:32:20;;;;;;;17.05;5.32;;;;;;;33.49;44.97;94947.09;4907911;29;20039;-81
2021/06/24 12:34:46;;;;;;;16.98;4.70;;;;;;;33.52;43.03;94949.19;4896619;29;20032;-77
2021/06/24 12:37:11;;;;;;;26.48;5.57;;;;;;;33.42;44.11;94946.00;4897350;29;20032;-83
2021/06/24 12:39:38;;;;;;;20.58;5.53;;;;;;;33.34;42.45;94948.38;4897471;29;20028;-80
2021/06/24 12:42:04;;;;;;;32.00;5.45;;;;;;;33.80;45.63;94947.81;4896228;29;20036;-79
2021/06/24 12:44:35;;;;;;;19.77;5.30;;;;;;;33.87;44.98;94950.03;4913614;29;20453;-83
2021/06/24 12:47:01;;;;;;;19.13;5.57;;;;;;;33.92;44.31;94942.56;4898491;29;20047;-81
2021/06/24 12:49:26;;;;;;;17.35;6.07;;;;;;;33.65;42.50;94937.50;4897400;29;20029;-88
2021/06/24 12:51:52;;;;;;;16.33;5.43;;;;;;;33.35;41.18;94939.22;4878587;29;20100;-91
2021/06/24 12:54:18;;;;;;;22.30;5.20;;;;;;;33.12;41.27;94942.31;4825165;29;20056;-86
2021/06/24 12:56:48;;;;;;;25.13;4.93;;;;;;;33.39;41.09;94934.00;4897599;29;20040;-84
2021/06/24 12:59:22;;;;;;;20.55;5.38;;;;;;;33.55;39.93;94932.44;4848854;29;20048;-84
2021/06/24 13:01:52;;;;;;;21.25;5.43;;;;;;;33.61;41.19;94925.81;4914309;29;20320;-89
2021/06/24 13:04:33;;;;;;;18.30;5.43;;;;;;;34.00;42.77;94926.75;4912759;29;20043;-79
2021/06/24 13:07:03;;;;;;;23.33;5.93;;;;;;;33.84;43.01;94926.44;4916551;29;20043;-84
2021/06/24 13:09:33;;;;;;;21.10;4.72;;;;;;;33.64;42.37;94927.09;4916342;29;20635;-80
2021/06/24 13:12:00;;;;;;;14.27;4.72;;;;;;;33.85;42.87;94918.06;4916352;29;20784;-82
2021/06/24 13:14:31;;;;;;;20.10;4.70;;;;;;;33.57;42.67;94924.03;4916996;29;20054;-85
2021/06/24 13:16:58;;;;;;;22.70;5.40;;;;;;;33.50;42.24;94924.50;4884477;29;20051;-84
2021/06/24 13:19:31;;;;;;;15.00;4.55;;;;;;;33.76;41.54;94919.97;4916825;29;20600;-83
2021/06/24 13:22:03;;;;;;;18.08;5.75;;;;;;;33.87;42.44;94915.06;4932319;29;20146;-82
2021/06/24 13:24:40;;;;;;;16.73;5.38;;;;;;;33.77;43.94;94908.09;4910005;29;20059;-77
2021/06/24 13:27:14;;;;;;;13.98;4.68;;;;;;;33.60;42.76;94897.34;4912262;29;20512;-83
2021/06/24 13:29:41;;;;;;;18.55;5.68;;;;;;;33.76;43.94;94895.75;4888767;29;20033;-82
2021/06/24 13:32:08;;;;;;;20.55;5.53;;;;;;;33.50;41.30;94886.09;4917577;29;20042;-80
2021/06/24 13:34:37;;;;;;;21.83;5.53;;;;;;;33.96;42.28;94893.53;4860041;29;20630;-79
2021/06/24 13:37:31;;;;;;;17.88;5.25;;;;;;;33.76;41.16;94884.22;4913239;29;20031;-83
2021/06/24 13:39:57;;;;;;;17.38;5.28;;;;;;;33.79;42.28;94886.25;4893915;29;20758;-81
2021/06/24 13:42:23;;;;;;;28.80;6.18;;;;;;;33.78;44.18;94887.38;4882679;29;20665;-80
2021/06/24 13:44:49;;;;;;;17.35;5.00;;;;;;;33.58;43.05;94867.28;4873152;29;20033;-80
2021/06/24 13:47:15;;;;;;;17.65;5.50;;;;;;;33.90;43.18;94880.25;4895863;29;20051;-79
2021/06/24 13:49:41;;;;;;;29.17;6.00;;;;;;;33.71;42.14;94870.94;4901674;29;20033;-83
2021/06/24 13:52:09;;;;;;;21.88;6.50;;;;;;;33.18;42.92;94855.91;4893551;29;20029;-83
2021/06/24 13:54:35;;;;;;;23.60;5.63;;;;;;;33.67;39.63;94870.78;4871973;29;20108;-82
2021/06/24 13:57:01;;;;;;;21.75;5.68;;;;;;;33.53;39.99;94872.81;4900258;29;20308;-82
2021/06/24 13:59:27;;;;;;;27.35;5.93;;;;;;;33.63;41.99;94864.47;4913687;29;20498;-84
2021/06/24 14:01:53;;;;;;;28.38;4.70;;;;;;;33.65;42.12;94870.31;4897014;29;20509;-77
2021/06/24 14:04:18;;;;;;;21.33;4.60;;;;;;;33.56;42.13;94855.25;4911532;29;20032;-82
2021/06/24 14:06:46;;;;;;;23.55;5.35;;;;;;;33.75;39.81;94867.28;4914270;29;20502;-82
2021/06/24 14:09:14;;;;;;;18.40;5.72;;;;;;;33.75;40.24;94859.22;4910675;29;20111;-82
2021/06/24 14:11:42;;;;;;;20.77;5.45;;;;;;;33.68;40.90;94858.91;4903841;29;20044;-83
2021/06/24 14:14:08;;;;;;;17.02;5.10;;;;;;;33.56;40.39;94850.69;4895802;29;20039;-83
2021/06/24 14:16:34;;;;;;;22.88;4.82;;;;;;;33.54;40.13;94849.41;4896487;29;20131;-86
2021/06/24 14:19:00;;;;;;;29.10;6.07;;;;;;;33.64;42.67;94854.50;4896080;29;20032;-82
2021/06/24 14:21:26;;;;;;;20.38;5.05;;;;;;;33.59;39.75;94855.41;4911244;29;20482;-82
2021/06/24 14:23:54;;;;;;;16.40;5.20;;;;;;;33.71;41.82;94858.31;4912869;29;20380;-82
2021/06/24 14:26:23;;;;;;;25.98;5.85;;;;;;;33.48;42.26;94845.31;4884042;29;20054;-84
2021/06/24 14:28:49;;;;;;;20.65;5.40;;;;;;;33.29;43.28;94853.72;4916516;29;20486;-82
2021/06/24 14:31:15;;;;;;;23.75;5.93;;;;;;;33.54;42.11;94852.91;4878077;29;20543;-81
2021/06/24 14:33:40;;;;;;;14.48;5.53;;;;;;;33.56;42.10;94842.63;4895063;29;20040;-81
2021/06/24 14:36:07;;;;;;;17.80;4.80;;;;;;;33.34;46.26;94851.66;4896704;29;20103;-83
2021/06/24 14:38:33;;;;;;;19.08;5.63;;;;;;;33.43;46.16;94856.25;4887558;29;20127;-83
2021/06/24 14:41:00;;;;;;;22.13;5.20;;;;;;;33.39;45.19;94842.66;4880002;29;20027;-83
2021/06/24 14:43:26;;;;;;;19.33;4.82;;;;;;;33.56;45.92;94844.50;4910807;29;20032;-80
2021/06/24 14:45:54;;;;;;;20.33;5.80;;;;;;;33.33;45.17;94831.25;4907809;29;20031;-82
2021/06/24 14:48:20;;;;;;;;;;;;;;;33.32;45.09;94847.69;4895836;29;20411;-82
2021/06/24 14:50:46;;;;;;;20.25;5.45;;;;;;;33.24;44.81;94843.09;4911965;29;19915;-84
2021/06/24 14:53:12;;;;;;;28.65;5.55;;;;;;;33.18;46.87;94847.84;4899317;29;20142;-82
2021/06/24 14:55:38;;;;;;;15.23;5.20;;;;;;;33.23;46.15;94828.09;4910118;29;20024;-82
2021/06/24 14:58:04;;;;;;;18.83;6.13;;;;;;;33.36;46.42;94838.66;4908877;29;20036;-83
2021/06/24 15:00:30;;;;;;;20.38;5.13;;;;;;;33.05;47.74;94832.63;4894045;29;20112;-83
2021/06/24 15:02:57;;;;;;;22.20;5.22;;;;;;;32.92;49.51;94822.81;4919723;29;20040;-87
2021/06/24 15:05:23;;;;;;;20.48;5.72;;;;;;;32.98;49.98;94826.13;4835304;29;20617;-87
2021/06/24 15:07:48;;;;;;;18.70;5.68;;;;;;;32.83;51.85;94828.19;4827583;29;20028;-85
2021/06/24 15:10:14;;;;;;;18.65;5.38;;;;;;;33.05;50.98;94832.63;4826335;29;20043;-83
2021/06/24 15:12:39;;;;;;;16.55;5.43;;;;;;;32.97;49.17;94836.13;4847121;29;20016;-87
2021/06/24 15:15:06;;;;;;;23.25;5.93;;;;;;;32.89;50.49;94828.81;4874892;29;20065;-83
2021/06/24 15:17:32;;;;;;;19.92;5.00;;;;;;;32.86;49.57;94832.94;4898604;29;20044;-85
2021/06/24 15:19:57;;;;;;;20.55;5.50;;;;;;;32.99;47.10;94836.59;4883895;29;20036;-85
2021/06/24 15:22:23;;;;;;;19.60;5.78;;;;;;;33.05;47.17;94842.59;4890544;29;20054;-84
2021/06/24 15:24:48;;;;;;;21.88;5.68;;;;;;;32.95;47.07;94835.63;4914303;29;20032;-86
2021/06/24 15:27:14;;;;;;;17.42;4.95;;;;;;;32.79;48.33;94826.44;4908549;29;20057;-85
2021/06/24 15:29:39;;;;;;;20.55;5.68;;;;;;;32.90;48.26;94843.84;4898022;29;20068;-85
2021/06/24 15:32:06;;;;;;;13.50;5.03;;;;;;;32.88;49.20;94835.28;4895528;29;20099;-85
2021/06/24 15:34:31;;;;;;;14.63;5.53;;;;;;;32.87;49.00;94841.78;4892771;29;20047;-87
2021/06/24 15:36:57;;;;;;;18.35;4.60;;;;;;;32.76;49.88;94833.22;4886751;29;20041;-85
2021/06/24 15:39:23;;;;;;;21.38;5.72;;;;;;;32.77;48.33;94829.44;4878408;29;20060;-85
2021/06/24 15:41:48;;;;;;;19.52;5.50;;;;;;;32.63;53.43;94820.72;4914196;29;20075;-87
2021/06/24 15:44:14;;;;;;;21.48;6.00;;;;;;;32.56;54.00;94831.09;4881597;29;20126;-83
2021/06/24 15:46:41;;;;;;;23.55;6.03;;;;;;;32.45;54.89;94835.19;4907339;29;20032;-82
2021/06/24 15:49:07;;;;;;;24.20;5.25;;;;;;;32.42;55.43;94822.38;4900410;29;20028;-84
2021/06/24 15:51:32;;;;;;;20.08;5.72;;;;;;;32.34;54.62;94833.88;4901171;29;20028;-86
2021/06/24 15:53:58;;;;;;;15.88;5.57;;;;;;;32.41;52.17;94836.09;4914245;29;20095;-84
2021/06/24 15:56:24;;;;;;;20.20;5.90;;;;;;;32.17;56.20;94842.63;4913542;29;20071;-86
2021/06/24 15:58:49;;;;;;;18.33;5.63;;;;;;;32.20;54.57;94844.72;4914214;29;20405;-85
2021/06/24 16:01:15;;;;;;;11.93;5.00;;;;;;;32.09;57.50;94846.06;4913215;29;20111;-82
2021/06/24 16:03:41;;;;;;;18.48;6.53;;;;;;;31.88;60.83;94861.06;4923999;29;20043;-83
2021/06/24 16:06:06;;;;;;;17.20;5.57;;;;;;;31.97;59.94;94853.88;4907863;29;20043;-85
2021/06/24 16:08:32;;;;;;;22.92;6.20;;;;;;;31.83;61.59;94853.94;4895022;29;20037;-85
2021/06/24 16:10:58;;;;;;;22.67;5.07;;;;;;;31.79;62.20;94850.28;4907902;29;20502;-86
2021/06/24 16:13:23;;;;;;;19.55;6.10;;;;;;;31.65;64.37;94860.31;4895882;29;20039;-84
2021/06/24 16:15:49;;;;;;;15.25;5.43;;;;;;;31.48;65.35;94854.78;4878244;29;20498;-84
2021/06/24 16:18:14;;;;;;;20.75;6.10;;;;;;;31.23;67.84;94847.34;4910829;29;20025;-84
2021/06/24 16:20:40;;;;;;;19.13;6.70;;;;;;;31.13;68.96;94853.72;4892203;29;20114;-84
2021/06/24 16:23:05;;;;;;;20.25;6.28;;;;;;;30.94;68.67;94854.91;4909377;29;20569;-86
2021/06/24 16:25:30;;;;;;;18.80;5.97;;;;;;;30.95;61.35;94856.50;4879187;29;20036;-85
2021/06/24 16:27:56;;;;;;;25.02;6.15;;;;;;;30.69;66.37;94861.59;4908744;29;20085;-86
2021/06/24 16:30:23;;;;;;;21.40;6.05;;;;;;;30.26;63.68;94851.19;4888988;29;20691;-85
2021/06/24 16:32:55;;;;;;;16.77;5.85;;;;;;;30.51;64.94;94852.59;4858473;29;20027;-85
2021/06/24 16:35:24;;;;;;;16.73;6.03;;;;;;;30.27;65.93;94846.63;4873585;29;20082;-86
2021/06/24 16:37:50;;;;;;;13.25;5.47;;;;;;;30.25;67.20;94854.13;4910576;29;20028;-86
2021/06/24 16:40:16;;;;;;;16.75;5.65;;;;;;;30.05;70.44;94849.97;4895980;29;20035;-86
2021/06/24 16:42:42;;;;;;;26.02;7.13;;;;;;;29.95;72.80;94860.03;4882722;29;20035;-86
2021/06/24 16:45:08;;;;;;;18.58;6.90;;;;;;;29.69;73.45;94855.09;4914187;29;20032;-90
2021/06/24 16:47:33;;;;;;;26.60;7.10;;;;;;;29.71;74.00;94860.16;4898566;29;20042;-87